createdAt,value
2022-12-03T00:02:37.009Z,45.50
2022-12-03T00:07:40.226Z,45.50
2022-12-03T00:12:43.348Z,45.50
2022-12-03T00:17:47.856Z,45.40
2022-12-03T00:22:51.016Z,45.40
2022-12-03T00:27:54.086Z,45.30
2022-12-03T00:32:58.584Z,45.30
2022-12-03T00:38:01.727Z,45.60
2022-12-03T00:43:05.034Z,45.60
2022-12-03T00:48:09.512Z,45.70
2022-12-03T00:53:12.623Z,45.70
2022-12-03T00:58:15.691Z,45.50
2022-12-03T01:03:20.128Z,45.60
2022-12-03T01:08:23.213Z,45.50
2022-12-03T01:13:26.368Z,45.60
2022-12-03T01:18:31.086Z,45.60
2022-12-03T01:23:34.156Z,45.60
2022-12-03T01:28:37.248Z,45.60
2022-12-03T01:33:41.670Z,45.70
2022-12-03T01:38:44.760Z,45.70
2022-12-03T01:43:48.983Z,45.60
2022-12-03T01:48:55.701Z,45.60
2022-12-03T01:54:00.516Z,45.50
2022-12-03T01:59:03.628Z,45.60
2022-12-03T02:04:10.265Z,45.60
2022-12-03T02:09:14.068Z,45.50
2022-12-03T02:14:20.817Z,45.50
2022-12-03T02:19:27.840Z,45.60
2022-12-03T02:24:38.553Z,45.50
2022-12-03T02:29:43.044Z,45.50
2022-12-03T02:34:47.251Z,45.50
2022-12-03T02:39:54.905Z,45.60
2022-12-03T02:45:05.475Z,45.80
2022-12-03T02:50:10.954Z,45.90
2022-12-03T02:55:15.422Z,45.90
2022-12-03T03:00:23.008Z,46.10
2022-12-03T03:05:26.833Z,46.20
2022-12-03T03:10:30.787Z,46.40
2022-12-03T03:15:36.990Z,46.60
2022-12-03T03:20:40.282Z,46.50
2022-12-03T03:25:45.730Z,46.30
2022-12-03T03:30:50.276Z,46.30
2022-12-03T03:35:53.728Z,46.30
2022-12-03T03:41:00.733Z,46.00
2022-12-03T03:46:06.986Z,45.90
2022-12-03T03:51:11.728Z,46.00
2022-12-03T03:56:15.270Z,46.10
2022-12-03T04:01:20.192Z,46.20
2022-12-03T04:06:23.332Z,46.10
2022-12-03T04:11:43.644Z,46.00
2022-12-03T04:16:48.125Z,46.00
2022-12-03T04:22:08.789Z,46.00
2022-12-03T04:27:29.416Z,46.00
2022-12-03T04:32:51.245Z,46.10
2022-12-03T04:37:54.345Z,46.20
2022-12-03T04:42:57.468Z,46.20
2022-12-03T04:48:01.920Z,45.90
2022-12-03T04:53:04.987Z,45.80
2022-12-03T04:58:08.079Z,45.80
2022-12-03T05:03:12.540Z,45.90
2022-12-03T05:08:15.700Z,46.00
2022-12-03T05:13:18.824Z,46.00
2022-12-03T05:18:23.308Z,46.10
2022-12-03T05:23:26.499Z,46.20
2022-12-03T05:28:29.765Z,46.10
2022-12-03T05:33:36.420Z,46.10
2022-12-03T05:38:42.627Z,46.10
2022-12-03T05:43:45.800Z,46.80
2022-12-03T05:48:50.283Z,46.10
2022-12-03T05:53:53.334Z,46.20
2022-12-03T05:58:56.440Z,46.20
2022-12-03T06:04:01.127Z,46.10
2022-12-03T06:09:04.655Z,46.20
2022-12-03T06:14:07.729Z,45.90
2022-12-03T06:19:12.359Z,45.90
2022-12-03T06:24:15.449Z,45.90
2022-12-03T06:29:18.516Z,45.90
2022-12-03T06:34:22.956Z,46.00
2022-12-03T06:39:26.237Z,46.30
2022-12-03T06:44:29.754Z,46.30
2022-12-03T06:49:34.212Z,46.40
2022-12-03T06:54:37.284Z,46.40
2022-12-03T06:59:40.442Z,46.60
2022-12-03T07:04:46.546Z,46.60
2022-12-03T07:09:49.809Z,46.50
2022-12-03T07:14:53.314Z,46.20
2022-12-03T07:19:58.059Z,46.30
2022-12-03T07:25:01.156Z,46.50
2022-12-03T07:30:04.511Z,46.20
2022-12-03T07:35:10.207Z,46.20
2022-12-03T07:40:14.327Z,46.40
2022-12-03T07:45:17.491Z,46.40
2022-12-03T07:50:22.061Z,46.40
2022-12-03T07:55:25.385Z,46.40
2022-12-03T08:00:28.574Z,46.50
2022-12-03T08:05:33.124Z,46.50
2022-12-03T08:10:36.334Z,46.40
2022-12-03T08:15:39.822Z,46.50
2022-12-03T08:20:45.952Z,46.40
2022-12-03T08:25:49.841Z,46.40
2022-12-03T08:31:02.091Z,46.40
2022-12-03T08:36:13.626Z,46.30
2022-12-03T08:41:39.461Z,46.20
2022-12-03T08:46:42.543Z,46.20
2022-12-03T08:51:46.991Z,46.30
2022-12-03T08:56:50.075Z,46.40
2022-12-03T09:01:53.798Z,46.30
2022-12-03T09:06:59.284Z,46.40
2022-12-03T09:12:03.246Z,46.70
2022-12-03T09:17:07.115Z,46.60
2022-12-03T09:22:11.875Z,46.60
2022-12-03T09:27:15.053Z,46.70
2022-12-03T09:32:18.884Z,46.90
2022-12-03T09:37:23.676Z,46.80
2022-12-03T09:42:27.332Z,46.70
2022-12-03T09:47:31.865Z,46.60
2022-12-03T09:52:36.358Z,46.40
2022-12-03T09:57:39.567Z,46.60
2022-12-03T10:02:43.392Z,46.60
2022-12-03T10:07:48.643Z,46.60
2022-12-03T10:12:52.689Z,46.60
2022-12-03T10:17:56.818Z,46.40
2022-12-03T10:23:01.266Z,46.40
2022-12-03T10:28:05.495Z,46.40
2022-12-03T10:33:18.851Z,46.30
2022-12-03T10:38:24.494Z,46.40
2022-12-03T10:43:27.666Z,46.50
2022-12-03T10:48:31.027Z,46.60
2022-12-03T10:53:37.145Z,46.50
2022-12-03T10:58:41.482Z,46.60
2022-12-03T11:03:45.188Z,46.50
2022-12-03T11:08:57.542Z,46.50
2022-12-03T11:14:04.468Z,46.90
2022-12-03T11:19:17.373Z,47.00
2022-12-03T11:24:22.562Z,47.20
2022-12-03T11:29:58.559Z,46.90
2022-12-03T11:35:01.730Z,46.80
2022-12-03T11:40:32.450Z,46.70
2022-12-03T11:45:39.927Z,46.60
2022-12-03T11:50:45.194Z,46.50
2022-12-03T11:56:06.070Z,46.50
2022-12-03T12:01:10.079Z,46.50
2022-12-03T12:06:14.628Z,46.50
2022-12-03T12:11:20.882Z,46.50
2022-12-03T12:16:46.096Z,46.40
2022-12-03T12:21:50.128Z,46.30
2022-12-03T12:26:55.127Z,46.30
2022-12-03T12:32:07.923Z,46.10
2022-12-03T12:37:13.637Z,46.00
2022-12-03T12:42:32.099Z,46.10
2022-12-03T12:47:36.561Z,46.60
2022-12-03T12:52:48.822Z,46.00
2022-12-03T12:57:53.501Z,46.00
2022-12-03T13:02:59.450Z,46.30
2022-12-03T13:08:17.639Z,46.50
2022-12-03T13:13:26.129Z,46.50
2022-12-03T13:18:34.303Z,46.50
2022-12-03T13:23:39.063Z,46.20
2022-12-03T13:28:43.963Z,46.80
2022-12-03T13:33:47.108Z,46.00
2022-12-03T13:38:50.380Z,46.10
2022-12-03T13:43:54.949Z,46.10
2022-12-03T13:49:01.715Z,46.30
2022-12-03T13:54:08.431Z,46.20
2022-12-03T13:59:19.292Z,46.10
2022-12-03T14:04:42.452Z,46.20
2022-12-03T14:09:45.609Z,46.20
2022-12-03T14:14:50.043Z,47.00
2022-12-03T14:19:53.416Z,46.30
2022-12-03T14:24:57.150Z,46.30
2022-12-03T14:30:01.968Z,46.40
2022-12-03T14:35:09.861Z,46.60
2022-12-03T14:40:19.574Z,46.90
2022-12-03T14:45:27.645Z,46.60
2022-12-03T14:50:30.891Z,46.20
2022-12-03T14:55:33.987Z,46.10
2022-12-03T15:00:38.778Z,46.00
2022-12-03T15:05:41.908Z,46.10
2022-12-03T15:10:45.038Z,46.10
2022-12-03T15:15:50.088Z,46.20
2022-12-03T15:20:53.371Z,46.40
2022-12-03T15:25:56.547Z,46.50
2022-12-03T15:31:01.464Z,46.50
2022-12-03T15:36:04.813Z,46.70
2022-12-03T15:41:23.235Z,46.60
2022-12-03T15:46:28.464Z,46.40
2022-12-03T15:51:31.797Z,46.60
2022-12-03T15:56:37.691Z,47.90
2022-12-03T16:01:42.451Z,47.50
2022-12-03T16:06:45.609Z,47.20
2022-12-03T16:11:48.767Z,46.80
2022-12-03T16:16:53.240Z,46.50
2022-12-03T16:21:56.392Z,46.00
2022-12-03T16:26:59.496Z,45.90
2022-12-03T16:32:04.012Z,46.00
2022-12-03T16:37:07.876Z,46.10
2022-12-03T16:42:16.914Z,46.30
2022-12-03T16:47:22.255Z,46.50
2022-12-03T16:52:25.415Z,47.00
2022-12-03T16:57:33.400Z,47.50
2022-12-03T17:02:38.679Z,46.70
2022-12-03T17:07:41.925Z,46.50
2022-12-03T17:13:14.527Z,46.30
2022-12-03T17:18:10.213Z,46.20
2022-12-03T17:23:13.919Z,46.30
2022-12-03T17:28:17.057Z,46.00
2022-12-03T17:33:21.526Z,46.10
2022-12-03T17:38:24.781Z,46.10
2022-12-03T17:43:27.867Z,46.30
2022-12-03T17:48:32.382Z,46.30
2022-12-03T17:53:35.470Z,46.50
2022-12-03T17:58:38.529Z,46.40
2022-12-03T18:03:43.110Z,46.60
2022-12-03T18:08:46.286Z,46.50
2022-12-03T18:13:49.428Z,46.30
2022-12-03T18:18:57.059Z,46.00
2022-12-03T18:24:02.716Z,46.10
2022-12-03T18:29:05.953Z,46.10
2022-12-03T18:34:10.718Z,46.40
2022-12-03T18:39:24.936Z,46.70
2022-12-03T18:44:29.148Z,46.70
2022-12-03T18:49:33.638Z,46.60
2022-12-03T18:54:36.751Z,46.20
2022-12-03T18:59:40.650Z,46.10
2022-12-03T19:04:45.267Z,46.10
2022-12-03T19:09:48.419Z,46.30
2022-12-03T19:14:51.701Z,46.30
2022-12-03T19:19:57.094Z,46.40
2022-12-03T19:25:00.539Z,46.50
2022-12-03T19:30:03.663Z,46.40
2022-12-03T19:35:11.203Z,46.50
2022-12-03T19:40:15.085Z,46.70
2022-12-03T19:45:18.391Z,46.60
2022-12-03T19:50:23.713Z,46.70
2022-12-03T19:55:26.941Z,46.80
2022-12-03T20:00:30.079Z,46.80
2022-12-03T20:05:38.250Z,46.70
2022-12-03T20:10:41.449Z,47.00
2022-12-03T20:15:44.556Z,46.90
2022-12-03T20:20:49.128Z,47.00
2022-12-03T20:25:52.203Z,47.00
2022-12-03T20:30:59.239Z,47.00
2022-12-03T20:36:03.919Z,47.10
2022-12-03T20:41:09.385Z,47.10
2022-12-03T20:46:14.261Z,47.00
2022-12-03T20:51:21.164Z,47.00
2022-12-03T20:56:26.360Z,47.10
2022-12-03T21:01:29.811Z,47.00
2022-12-03T21:06:36.130Z,47.00
2022-12-03T21:11:42.240Z,47.20
2022-12-03T21:22:13.834Z,47.10
2022-12-03T21:27:21.647Z,47.20
2022-12-03T21:32:25.235Z,47.10
2022-12-03T21:37:29.759Z,47.00
2022-12-03T21:42:36.644Z,47.20
2022-12-03T21:47:40.755Z,47.20
2022-12-03T21:52:45.391Z,47.30
2022-12-03T21:57:48.743Z,47.40
2022-12-03T22:02:52.377Z,47.20
2022-12-03T22:07:57.025Z,47.20
2022-12-03T22:13:00.256Z,47.20
2022-12-03T22:18:04.225Z,47.20
2022-12-03T22:23:08.762Z,47.20
2022-12-03T22:28:14.093Z,47.20
2022-12-03T22:33:17.280Z,47.20
2022-12-03T22:38:21.887Z,47.20
2022-12-03T22:43:25.458Z,47.20
2022-12-03T22:48:28.739Z,47.00
2022-12-03T22:53:33.213Z,46.90
2022-12-03T22:58:38.553Z,47.00
2022-12-03T23:03:41.767Z,47.10
2022-12-03T23:08:46.624Z,47.20
2022-12-03T23:13:49.815Z,47.10
2022-12-03T23:18:53.140Z,47.10
2022-12-03T23:23:57.648Z,47.20
2022-12-03T23:29:00.698Z,47.20
2022-12-03T23:34:04.425Z,47.10
2022-12-03T23:39:09.079Z,46.90
2022-12-03T23:44:12.194Z,47.20
2022-12-03T23:49:15.297Z,47.20
2022-12-03T23:54:19.963Z,47.20
2022-12-03T23:59:23.067Z,47.40
